Time;durP1;ratioP1;P1;durP2;ratioP2;P2;SDS_P1;SDS_P2;PMS_P1;PMS_P2;Temp;Humidity;BMP_temperature;BMP_pressure;BME280_temperature;BME280_humidity;BME280_pressure;Samples;Min_cycle;Max_cycle;Signal;HPM_P1;HPM_P2
2022/11/11 00:02:16;;;;;;;;;;;;;;;8.11;84.71;99619.03;4871192;29;2133;-78
2022/11/11 00:04:43;;;;;;;;;;;;;;;8.11;84.61;99621.72;4865268;29;2074;-79
2022/11/11 00:07:09;;;;;;;;;;;;;;;8.12;84.35;99607.28;4852040;29;2004;-78
2022/11/11 00:09:36;;;;;;;;;;;;;;;8.12;84.26;99621.50;4864075;29;1947;-79
2022/11/11 00:12:02;;;;;;;;;;;;;;;8.14;84.69;99632.00;4864066;29;1867;-79
2022/11/11 00:14:29;;;;;;;;;;;;;;;8.14;84.49;99630.13;4863500;29;2094;-79
2022/11/11 00:25:08;;;;;;;;;;;;;;;8.16;84.60;99632.59;4862862;29;2010;-79
2022/11/11 00:27:35;;;;;;;;;;;;;;;8.15;84.55;99631.78;4863432;29;2097;-79
2022/11/11 00:30:01;;;;;;;;;;;;;;;8.16;84.67;99646.84;4864492;29;1971;-79
2022/11/11 00:32:29;;;;;;;;;;;;;;;8.17;84.83;99613.59;4866049;29;2070;-79
2022/11/11 00:37:40;;;;;;;;;;;;;;;8.17;84.71;99634.22;4865324;29;1884;-79
2022/11/11 00:40:07;;;;;;;;;;;;;;;8.18;84.50;99651.97;4863754;29;1945;-78
2022/11/11 00:42:33;;;;;;;;;;;;;;;8.17;84.80;99616.28;4865952;29;1902;-78
2022/11/11 00:45:00;;;;;;;;;;;;;;;8.19;84.67;99621.44;4867493;29;2057;-78
2022/11/11 00:52:55;;;;;;;;;;;;;;;8.20;84.88;99629.22;4864620;29;1968;-79
2022/11/11 00:55:22;;;;;;;;;;;;;;;8.22;84.79;99612.91;4861370;29;2100;-77
2022/11/11 00:57:49;;;;;;;;;;;;;;;8.23;84.87;99622.59;4862840;29;2093;-79
2022/11/11 01:00:15;;;;;;;;;;;;;;;8.23;84.61;99611.88;4871504;29;1807;-79
2022/11/11 01:02:42;;;;;;;;;;;;;;;8.23;84.43;99584.22;4865324;29;2052;-79
2022/11/11 01:05:08;;;;;;;;;;;;;;;8.24;84.76;99575.16;4866722;29;1948;-78
2022/11/11 01:07:35;;;;;;;;;;;;;;;8.26;84.59;99556.94;4847955;29;1907;-78
2022/11/11 01:10:01;;;;;;;;;;;;;;;8.26;84.61;99560.44;4862211;29;1969;-79
2022/11/11 01:12:28;;;;;;;;;;;;;;;8.27;85.07;99563.97;4864045;29;1708;-79
2022/11/11 01:14:54;;;;;;;;;;;;;;;8.26;84.93;99575.72;4863830;29;1861;-79
2022/11/11 01:17:21;;;;;;;;;;;;;;;8.28;84.82;99565.59;4863645;29;1807;-78
2022/11/11 01:19:48;;;;;;;;;;;;;;;8.29;84.97;99591.34;4868481;29;2262;-79
2022/11/11 01:22:14;;;;;;;;;;;;;;;8.29;85.00;99570.72;4863755;29;1943;-79
2022/11/11 01:24:41;;;;;;;;;;;;;;;8.29;85.17;99568.03;4861899;29;1928;-79
2022/11/11 01:27:07;;;;;;;;;;;;;;;8.30;84.94;99564.31;4863936;29;1912;-78
2022/11/11 01:29:34;;;;;;;;;;;;;;;8.31;84.84;99565.13;4863417;29;2007;-79
2022/11/11 01:32:00;;;;;;;;;;;;;;;8.30;84.81;99567.00;4864003;29;1732;-79
2022/11/11 01:34:27;;;;;;;;;;;;;;;8.30;85.13;99561.63;4861452;29;2403;-79
2022/11/11 01:36:54;;;;;;;;;;;;;;;8.30;84.83;99545.53;4880168;29;2114;-79
2022/11/11 01:39:20;;;;;;;;;;;;;;;8.31;84.90;99586.59;4862572;29;1951;-78
2022/11/11 01:41:47;;;;;;;;;;;;;;;8.31;84.79;99583.91;4863478;29;1871;-79
2022/11/11 01:44:13;;;;;;;;;;;;;;;8.30;85.01;99548.22;4861335;29;2150;-79
2022/11/11 01:46:40;;;;;;;;;;;;;;;8.32;85.07;99554.16;4862376;29;1995;-79
2022/11/11 01:49:18;;;;;;;;;;;;;;;8.32;85.02;99572.94;4862468;29;1959;-79
2022/11/11 01:51:44;;;;;;;;;;;;;;;8.32;85.31;99597.09;4867387;29;1931;-79
2022/11/11 01:54:11;;;;;;;;;;;;;;;8.32;85.09;99580.16;4848984;29;2107;-79
2022/11/11 01:56:37;;;;;;;;;;;;;;;8.33;84.86;99573.78;4850683;29;1784;-79
2022/11/11 01:59:04;;;;;;;;;;;;;;;8.33;84.82;99560.38;4850637;29;2113;-79
2022/11/11 02:01:31;;;;;;;;;;;;;;;8.32;85.23;99572.13;4873775;29;4660;-79
2022/11/11 02:06:41;;;;;;;;;;;;;;;8.33;85.37;99603.28;4877783;29;4290;-79
2022/11/11 02:09:08;;;;;;;;;;;;;;;8.33;85.45;99598.75;4878820;29;1745;-79
2022/11/11 02:14:38;;;;;;;;;;;;;;;8.34;85.02;99589.63;4854844;29;2038;-79
2022/11/11 02:17:05;;;;;;;;;;;;;;;8.34;85.10;99572.72;4873996;29;1739;-77
2022/11/11 02:19:31;;;;;;;;;;;;;;;8.34;84.94;99545.91;4862798;29;4200;-79
2022/11/11 02:21:58;;;;;;;;;;;;;;;8.35;85.01;99563.63;4863573;29;1905;-79
2022/11/11 02:24:24;;;;;;;;;;;;;;;8.36;85.13;99587.56;4866660;29;3331;-79
2022/11/11 02:26:51;;;;;;;;;;;;;;;8.37;84.99;99588.38;4862391;29;3311;-79
2022/11/11 02:29:18;;;;;;;;;;;;;;;8.36;84.96;99574.13;4858315;29;2037;-78
2022/11/11 02:31:44;;;;;;;;;;;;;;;8.37;85.10;99588.38;4868881;29;2341;-79
2022/11/11 02:34:11;;;;;;;;;;;;;;;8.38;84.97;99588.19;4862189;29;1728;-78
2022/11/11 02:36:37;;;;;;;;;;;;;;;8.38;85.08;99580.13;4862327;29;2111;-79
2022/11/11 02:39:04;;;;;;;;;;;;;;;8.39;85.39;99589.81;4867501;29;1912;-79
2022/11/11 02:44:14;;;;;;;;;;;;;;;8.39;85.24;99573.72;4860344;29;2434;-79
2022/11/11 02:46:41;;;;;;;;;;;;;;;8.39;85.28;99571.03;4861589;29;2013;-78
2022/11/11 02:49:08;;;;;;;;;;;;;;;8.40;84.95;99569.16;4860572;29;2035;-79
2022/11/11 02:51:34;;;;;;;;;;;;;;;8.40;85.02;99571.84;4860286;29;1758;-78
2022/11/11 02:54:01;;;;;;;;;;;;;;;8.40;85.20;99586.06;4869719;29;1800;-78
2022/11/11 02:59:12;;;;;;;;;;;;;;;8.42;85.04;99569.75;4861783;29;1979;-79
2022/11/11 03:01:39;;;;;;;;;;;;;;;8.42;84.80;99580.47;4857660;29;1919;-79
2022/11/11 03:04:05;;;;;;;;;;;;;;;8.43;84.94;99600.09;4861466;29;1996;-79
2022/11/11 03:06:32;;;;;;;;;;;;;;;8.43;85.29;99605.44;4859059;29;2003;-79
2022/11/11 03:08:58;;;;;;;;;;;;;;;8.42;85.20;99575.13;4849932;29;1952;-79
2022/11/11 03:11:27;;;;;;;;;;;;;;;8.44;85.32;99577.56;4873212;29;2085;-79
2022/11/11 03:13:54;;;;;;;;;;;;;;;8.43;85.02;99582.13;4859165;29;2034;-78
2022/11/11 03:19:00;;;;;;;;;;;;;;;8.43;85.31;99582.13;4867653;29;2087;-79
2022/11/11 03:21:26;;;;;;;;;;;;;;;8.45;85.07;99584.56;4867472;29;1777;-79
2022/11/11 03:23:53;;;;;;;;;;;;;;;8.45;84.83;99588.06;4872150;29;1940;-78
2022/11/11 03:26:20;;;;;;;;;;;;;;;8.45;85.13;99577.34;4862257;29;2399;-79
2022/11/11 03:28:46;;;;;;;;;;;;;;;8.45;84.94;99569.28;4856315;29;1710;-79
2022/11/11 03:31:13;;;;;;;;;;;;;;;8.45;85.03;99585.41;4865742;29;1808;-78
2022/11/11 03:33:39;;;;;;;;;;;;;;;8.46;85.05;99575.47;4865337;29;2781;-78
2022/11/11 03:36:06;;;;;;;;;;;;;;;8.46;85.26;99575.47;4863370;29;1911;-79
2022/11/11 03:38:31;;;;;;;;;;;;;;;8.47;85.36;99564.53;4849471;29;1812;-78
2022/11/11 03:40:58;;;;;;;;;;;;;;;8.46;85.44;99580.84;4868409;29;2067;-77
2022/11/11 03:43:24;;;;;;;;;;;;;;;8.47;85.26;99591.34;4863546;29;2147;-77
2022/11/11 03:45:51;;;;;;;;;;;;;;;8.48;85.03;99598.34;4865196;29;2114;-78
2022/11/11 03:48:18;;;;;;;;;;;;;;;8.49;85.07;99594.59;4865540;29;1911;-79
2022/11/11 03:50:46;;;;;;;;;;;;;;;8.49;85.06;99599.97;4863616;29;1854;-79
2022/11/11 03:53:13;;;;;;;;;;;;;;;8.49;85.19;99573.13;4862230;29;2309;-78
2022/11/11 03:55:39;;;;;;;;;;;;;;;8.48;85.21;99558.09;4870411;29;2193;-79
2022/11/11 03:58:06;;;;;;;;;;;;;;;8.50;85.05;99580.16;4864903;29;1914;-79
2022/11/11 04:00:33;;;;;;;;;;;;;;;8.51;84.99;99595.22;4874938;29;2088;-79
2022/11/11 04:11:26;;;;;;;;;;;;;;;8.53;85.19;99616.44;4816907;29;2752;-78
2022/11/11 04:16:38;;;;;;;;;;;;;;;8.55;85.20;99649.25;4861442;29;2161;-78
2022/11/11 04:21:48;;;;;;;;;;;;;;;8.55;84.99;99625.09;4864641;29;1976;-77
2022/11/11 04:26:59;;;;;;;;;;;;;;;8.55;85.14;99614.34;4856806;29;1959;-79
2022/11/11 04:29:28;;;;;;;;;;;;;;;8.22;84.91;99566.50;4853659;29;2109;-79
2022/11/11 04:34:39;;;;;;;;;;;;;;;8.57;85.32;99598.84;4840981;29;1914;-77
2022/11/11 04:37:05;;;;;;;;;;;;;;;8.58;85.41;99609.34;4854491;29;2041;-79
2022/11/11 04:42:16;;;;;;;;;;;;;;;8.59;85.25;99629.78;4851999;29;1776;-77
2022/11/11 04:47:27;;;;;;;;;;;;;;;8.59;85.25;99596.75;4850883;29;1929;-78
2022/11/11 04:49:54;;;;;;;;;;;;;;;8.59;85.31;99594.06;4864492;29;1855;-78
2022/11/11 04:52:26;;;;;;;;;;;;;;;8.59;85.34;99586.03;4862671;29;1832;-77
2022/11/11 04:57:42;;;;;;;;;;;;;;;8.61;85.16;99591.94;4801599;29;3293;-77
2022/11/11 05:00:09;;;;;;;;;;;;;;;8.61;85.18;99595.44;4855897;29;2001;-79
2022/11/11 05:05:20;;;;;;;;;;;;;;;8.16;85.19;99542.22;4851438;29;2107;-78
2022/11/11 05:10:31;;;;;;;;;;;;;;;8.60;85.46;99617.97;4857710;29;2007;-78
2022/11/11 05:21:19;;;;;;;;;;;;;;;8.62;85.19;99617.75;4855346;29;2014;-81
2022/11/11 05:21:22;;;;;;;;;;;;;;;8.62;85.03;99618.59;4870649;29;2163;-81
2022/11/11 05:26:33;;;;;;;;;;;;;;;8.63;85.36;99620.22;4882039;29;1911;-78
2022/11/11 05:29:00;;;;;;;;;;;;;;;8.63;85.47;99644.38;4881948;29;1906;-80
2022/11/11 05:31:26;;;;;;;;;;;;;;;8.64;85.19;99635.25;4858836;29;1977;-80
2022/11/11 05:33:53;;;;;;;;;;;;;;;8.64;85.28;99650.53;4865837;29;2082;-80
2022/11/11 05:36:19;;;;;;;;;;;;;;;8.63;85.51;99652.41;4866048;29;1829;-79
2022/11/11 05:38:46;;;;;;;;;;;;;;;8.64;85.50;99648.69;4866358;29;1809;-79
2022/11/11 05:41:14;;;;;;;;;;;;;;;8.66;85.38;99642.28;4850289;29;2186;-78
2022/11/11 05:43:40;;;;;;;;;;;;;;;8.65;85.46;99644.16;4870094;29;1891;-78
2022/11/11 05:46:06;;;;;;;;;;;;;;;8.64;85.34;99640.63;4850960;29;1880;-76
2022/11/11 05:48:33;;;;;;;;;;;;;;;8.66;85.21;99634.22;4863540;29;2020;-80
2022/11/11 05:51:00;;;;;;;;;;;;;;;8.67;85.35;99636.66;4867247;29;2298;-79
2022/11/11 05:53:27;;;;;;;;;;;;;;;8.68;85.42;99661.63;4863804;29;2073;-80
2022/11/11 05:55:54;;;;;;;;;;;;;;;8.67;85.35;99649.28;4851848;29;2305;-77
2022/11/11 05:58:21;;;;;;;;;;;;;;;8.67;85.25;99654.66;4869933;29;2186;-76
2022/11/11 06:00:47;;;;;;;;;;;;;;;8.67;85.03;99649.28;4873233;29;2277;-78
2022/11/11 06:03:14;;;;;;;;;;;;;;;8.67;85.34;99652.78;4860799;29;2095;-79
2022/11/11 06:05:40;;;;;;;;;;;;;;;8.68;85.59;99670.53;4864268;29;1782;-78
2022/11/11 06:08:07;;;;;;;;;;;;;;;8.68;85.51;99672.38;4861450;29;2074;-79
2022/11/11 06:10:33;;;;;;;;;;;;;;;8.67;85.66;99665.38;4862769;29;1948;-78
2022/11/11 06:13:06;;;;;;;;;;;;;;;8.68;85.42;99646.38;4870347;29;2023;-78
2022/11/11 06:15:33;;;;;;;;;;;;;;;8.68;85.41;99669.69;4850500;29;1745;-78
2022/11/11 06:17:59;;;;;;;;;;;;;;;8.68;85.31;99654.44;4862643;29;2056;-77
2022/11/11 06:20:26;;;;;;;;;;;;;;;8.68;85.49;99665.16;4866094;29;2096;-79
2022/11/11 06:22:58;;;;;;;;;;;;;;;8.68;85.34;99667.84;4861494;29;1987;-78
2022/11/11 06:28:10;;;;;;;;;;;;;;;8.69;85.28;99657.94;4865010;29;1996;-79
2022/11/11 06:30:37;;;;;;;;;;;;;;;8.70;85.50;99652.31;4861985;29;1610;-80
2022/11/11 06:33:03;;;;;;;;;;;;;;;8.69;85.39;99655.25;4848935;29;1642;-80
2022/11/11 06:35:30;;;;;;;;;;;;;;;8.70;85.48;99659.56;4861568;29;2075;-80
2022/11/11 06:37:56;;;;;;;;;;;;;;;8.69;85.50;99674.84;4854469;29;4668;-79
2022/11/11 06:40:23;;;;;;;;;;;;;;;8.70;85.65;99689.91;4862838;29;4306;-77
2022/11/11 06:42:50;;;;;;;;;;;;;;;8.71;85.52;99688.88;4868006;29;3698;-76
2022/11/11 06:45:16;;;;;;;;;;;;;;;8.70;85.62;99703.31;4865059;29;1587;-78
2022/11/11 06:47:43;;;;;;;;;;;;;;;8.69;85.57;99690.94;4861238;29;1939;-80
2022/11/11 06:50:09;;;;;;;;;;;;;;;8.70;85.33;99679.16;4869399;29;1618;-79
2022/11/11 06:52:36;;;;;;;;;;;;;;;8.72;85.12;99701.22;4872650;29;1609;-77
2022/11/11 06:55:05;;;;;;;;;;;;;;;8.71;85.64;99696.91;4869683;29;3848;-78
2022/11/11 06:57:31;;;;;;;;;;;;;;;8.72;85.20;99709.28;4877495;29;1925;-80
2022/11/11 06:59:58;;;;;;;;;;;;;;;8.73;85.38;99726.22;4886044;29;1739;-77
2022/11/11 07:02:24;;;;;;;;;;;;;;;8.73;85.26;99715.47;4871394;29;1689;-79
2022/11/11 07:04:51;;;;;;;;;;;;;;;8.73;85.38;99727.03;4860458;29;1864;-77
2022/11/11 07:07:17;;;;;;;;;;;;;;;8.75;85.54;99721.44;4855559;29;1965;-78
2022/11/11 07:09:44;;;;;;;;;;;;;;;8.74;85.04;99717.94;4853281;29;5300;-77
2022/11/11 07:12:10;;;;;;;;;;;;;;;8.75;85.42;99716.06;4871678;29;1686;-78
2022/11/11 07:14:37;;;;;;;;;;;;;;;8.75;85.51;99724.94;4876616;29;3235;-77
2022/11/11 07:17:04;;;;;;;;;;;;;;;8.75;85.51;99719.56;4869313;29;2111;-77
2022/11/11 07:19:30;;;;;;;;;;;;;;;8.75;85.18;99727.63;4881390;29;1578;-79
2022/11/11 07:21:57;;;;;;;;;;;;;;;8.76;85.16;99717.69;4863123;29;1966;-77
2022/11/11 07:24:24;;;;;;;;;;;;;;;8.77;85.68;99733.59;4857338;29;4647;-77
2022/11/11 07:26:50;;;;;;;;;;;;;;;8.77;85.36;99716.66;4879606;29;3471;-77
2022/11/11 07:29:17;;;;;;;;;;;;;;;8.77;85.16;99732.78;4876055;29;2163;-78
2022/11/11 07:31:43;;;;;;;;;;;;;;;8.77;85.32;99722.03;4877296;29;3133;-79
2022/11/11 07:34:10;;;;;;;;;;;;;;;8.76;85.42;99723.06;4879240;29;1605;-78
2022/11/11 07:36:36;;;;;;;;;;;;;;;8.77;85.31;99722.03;4888377;29;1600;-77
2022/11/11 07:39:03;;;;;;;;;;;;;;;8.77;85.42;99735.47;4868468;29;1993;-78
2022/11/11 07:41:30;;;;;;;;;;;;;;;8.77;85.19;99735.47;4875066;29;1916;-78
2022/11/11 07:43:57;;;;;;;;;;;;;;;8.78;85.72;99739.78;4871023;29;2901;-78
2022/11/11 07:46:23;;;;;;;;;;;;;;;8.78;85.36;99756.69;4856119;29;1590;-78
2022/11/11 07:48:50;;;;;;;;;;;;;;;8.78;85.53;99729.03;4873473;29;2011;-76
2022/11/11 07:51:16;;;;;;;;;;;;;;;8.77;85.17;99725.53;4879844;29;1673;-77
2022/11/11 07:53:43;;;;;;;;;;;;;;;8.78;85.41;99719.13;4879830;29;1145;-78
2022/11/11 07:56:09;;;;;;;;;;;;;;;8.78;85.29;99723.66;4884426;29;1537;-80
2022/11/11 07:58:36;;;;;;;;;;;;;;;8.79;85.44;99738.72;4862131;29;2011;-77
2022/11/11 08:01:02;;;;;;;;;;;;;;;8.78;85.35;99737.09;4855846;29;1334;-77
2022/11/11 08:03:29;;;;;;;;;;;;;;;8.79;85.56;99738.72;4884262;29;1629;-78
2022/11/11 08:05:55;;;;;;;;;;;;;;;8.79;85.35;99736.84;4878713;29;1487;-77
2022/11/11 08:08:25;;;;;;;;;;;;;;;8.79;85.28;99752.97;4885322;29;1979;-78
2022/11/11 08:10:52;;;;;;;;;;;;;;;8.80;85.33;99753.81;4891167;29;1860;-78
2022/11/11 08:16:05;;;;;;;;;;;;;;;8.81;85.60;99784.97;4879339;29;1607;-77
2022/11/11 08:18:31;;;;;;;;;;;;;;;8.81;85.30;99780.41;4857664;29;3302;-77
2022/11/11 08:20:58;;;;;;;;;;;;;;;8.81;85.28;99784.97;4859388;29;2052;-78
2022/11/11 08:23:31;;;;;;;;;;;;;;;8.82;85.33;99800.88;4868817;29;2046;-78
2022/11/11 08:25:58;;;;;;;;;;;;;;;8.82;85.54;99808.06;4862521;29;1551;-78
2022/11/11 08:28:24;;;;;;;;;;;;;;;8.82;85.24;99808.06;4873833;29;2052;-78
2022/11/11 08:30:51;;;;;;;;;;;;;;;8.82;85.38;99811.59;4889457;29;1505;-79
2022/11/11 08:33:18;;;;;;;;;;;;;;;8.83;85.43;99813.25;4859688;29;1514;-78
2022/11/11 08:35:44;;;;;;;;;;;;;;;8.84;85.16;99808.69;4891658;29;1568;-79
2022/11/11 08:38:12;;;;;;;;;;;;;;;8.83;85.20;99807.88;4882945;29;2217;-79
2022/11/11 08:40:38;;;;;;;;;;;;;;;8.84;85.02;99811.38;4898854;29;1479;-79
2022/11/11 08:43:05;;;;;;;;;;;;;;;8.84;85.37;99795.25;4882755;29;978;-77
2022/11/11 08:45:31;;;;;;;;;;;;;;;8.84;85.38;99804.13;4877640;29;3577;-79
2022/11/11 08:47:58;;;;;;;;;;;;;;;8.85;85.49;99813.84;4865663;29;3662;-79
2022/11/11 08:50:24;;;;;;;;;;;;;;;8.43;85.06;99745.78;4880684;29;1995;-78
2022/11/11 08:52:51;;;;;;;;;;;;;;;8.85;85.65;99816.53;4885341;29;2800;-79
2022/11/11 08:55:17;;;;;;;;;;;;;;;8.86;85.44;99807.41;4889258;29;1676;-79
2022/11/11 08:57:44;;;;;;;;;;;;;;;8.86;85.01;99803.91;4871531;29;2051;-79
2022/11/11 09:00:11;;;;;;;;;;;;;;;8.87;85.59;99816.28;4880121;29;1956;-79
2022/11/11 09:02:37;;;;;;;;;;;;;;;8.87;85.34;99818.97;4882257;29;799;-79
2022/11/11 09:05:04;;;;;;;;;;;;;;;8.86;85.30;99834.25;4891114;29;2727;-79
2022/11/11 09:07:30;;;;;;;;;;;;;;;8.87;85.29;99843.94;4880091;29;2031;-78
2022/11/11 09:09:57;;;;;;;;;;;;;;;8.90;85.44;99863.34;4900030;29;1017;-78
2022/11/11 09:12:24;;;;;;;;;;;;;;;8.89;85.31;99861.72;4900459;29;1526;-79
2022/11/11 09:14:50;;;;;;;;;;;;;;;8.89;85.54;99869.78;4862140;29;1223;-79
2022/11/11 09:17:17;;;;;;;;;;;;;;;8.90;85.54;99863.34;4877685;29;2105;-79
2022/11/11 09:19:43;;;;;;;;;;;;;;;8.90;85.37;99860.66;4874240;29;1940;-78
2022/11/11 09:22:10;;;;;;;;;;;;;;;8.91;85.57;99870.34;4882531;29;969;-79
2022/11/11 09:24:36;;;;;;;;;;;;;;;8.92;85.56;99877.38;4871925;29;1531;-79
2022/11/11 09:27:03;;;;;;;;;;;;;;;8.93;85.25;99876.31;4863773;29;1905;-79
2022/11/11 09:29:29;;;;;;;;;;;;;;;8.91;85.50;99881.09;4862203;29;1990;-78
2022/11/11 09:31:56;;;;;;;;;;;;;;;8.92;85.51;99894.31;4897515;29;1576;-78
2022/11/11 09:34:22;;;;;;;;;;;;;;;8.92;85.22;99905.06;4891302;29;1611;-79
2022/11/11 09:36:49;;;;;;;;;;;;;;;8.93;85.24;99892.44;4863322;29;2072;-79
2022/11/11 09:39:16;;;;;;;;;;;;;;;8.92;85.45;99905.06;4879509;29;1541;-79
2022/11/11 09:41:42;;;;;;;;;;;;;;;8.93;85.26;99892.44;4892531;29;1820;-78
2022/11/11 09:44:09;;;;;;;;;;;;;;;8.94;85.54;99897.59;4856353;29;1485;-79
2022/11/11 09:46:35;;;;;;;;;;;;;;;8.94;85.51;99894.91;4864881;29;1978;-78
2022/11/11 09:49:03;;;;;;;;;;;;;;;8.95;85.27;99874.25;4849335;29;1903;-77
2022/11/11 09:51:29;;;;;;;;;;;;;;;8.96;85.14;99857.06;4879240;29;1491;-79
2022/11/11 09:53:57;;;;;;;;;;;;;;;8.96;85.35;99873.19;4883678;29;2091;-78
2022/11/11 09:56:23;;;;;;;;;;;;;;;8.97;85.17;99877.50;4884262;29;1455;-79
2022/11/11 09:58:50;;;;;;;;;;;;;;;8.97;85.32;99882.88;4888220;29;1501;-79
2022/11/11 10:01:16;;;;;;;;;;;;;;;8.96;85.60;99886.63;4868616;29;1953;-79
2022/11/11 10:03:43;;;;;;;;;;;;;;;8.97;85.60;99889.09;4879462;29;1948;-79
2022/11/11 10:06:10;;;;;;;;;;;;;;;8.97;85.50;99889.09;4880877;29;1877;-78
2022/11/11 10:08:36;;;;;;;;;;;;;;;8.97;85.21;99905.22;4882529;29;1915;-78
2022/11/11 10:11:03;;;;;;;;;;;;;;;8.98;85.33;99906.84;4870589;29;1796;-79
2022/11/11 10:13:29;;;;;;;;;;;;;;;8.97;85.31;99894.47;4882106;29;2142;-78
2022/11/11 10:15:56;;;;;;;;;;;;;;;8.97;85.12;99886.41;4864238;29;1351;-79
2022/11/11 10:18:22;;;;;;;;;;;;;;;8.98;85.26;99861.19;4880961;29;1303;-79
2022/11/11 10:20:49;;;;;;;;;;;;;;;9.00;85.17;99891.31;4881487;29;1946;-79
2022/11/11 10:23:15;;;;;;;;;;;;;;;9.00;85.37;99882.44;4871841;29;1875;-78
2022/11/11 10:25:42;;;;;;;;;;;;;;;9.00;85.28;99875.22;4882528;29;1876;-78
2022/11/11 10:28:08;;;;;;;;;;;;;;;9.02;85.23;99896.47;4847503;29;1911;-77
2022/11/11 10:30:35;;;;;;;;;;;;;;;9.03;85.11;99922.25;4875068;29;2021;-79
2022/11/11 10:33:01;;;;;;;;;;;;;;;9.03;85.25;99920.44;4881947;29;1498;-79
2022/11/11 10:35:28;;;;;;;;;;;;;;;9.03;85.49;99916.91;4849105;29;1978;-78
2022/11/11 10:37:55;;;;;;;;;;;;;;;9.03;85.30;99925.78;4878431;29;1671;-78
2022/11/11 10:40:21;;;;;;;;;;;;;;;9.04;85.21;99929.28;4877308;29;2020;-79
2022/11/11 10:42:48;;;;;;;;;;;;;;;9.03;85.02;99898.94;4877937;29;1999;-78
2022/11/11 10:45:14;;;;;;;;;;;;;;;9.04;85.01;99919.38;4865072;29;1466;-79
2022/11/11 10:47:41;;;;;;;;;;;;;;;9.05;85.20;99906.75;4878728;29;1661;-80
2022/11/11 10:50:07;;;;;;;;;;;;;;;9.07;85.23;99918.91;4884881;29;2055;-78
2022/11/11 10:52:34;;;;;;;;;;;;;;;9.08;85.12;99925.09;4885851;29;2035;-79
2022/11/11 10:55:00;;;;;;;;;;;;;;;9.07;85.50;99904.66;4880621;29;1408;-79
2022/11/11 10:57:27;;;;;;;;;;;;;;;9.08;85.27;99906.31;4891812;29;1578;-79
2022/11/11 10:59:53;;;;;;;;;;;;;;;9.08;85.30;99936.66;4880441;29;1991;-78
2022/11/11 11:02:20;;;;;;;;;;;;;;;9.08;85.32;99925.91;4889990;29;2095;-79
2022/11/11 11:04:46;;;;;;;;;;;;;;;9.09;85.39;99934.81;4879568;29;1540;-79
2022/11/11 11:07:13;;;;;;;;;;;;;;;9.10;85.25;99928.41;4879937;29;1705;-79
2022/11/11 11:09:39;;;;;;;;;;;;;;;9.12;85.48;99938.91;4870594;29;1903;-79
2022/11/11 11:12:06;;;;;;;;;;;;;;;9.12;85.45;99946.97;4864869;29;1976;-78
2022/11/11 11:14:33;;;;;;;;;;;;;;;9.13;85.45;99949.44;4866144;29;1511;-79
2022/11/11 11:16:59;;;;;;;;;;;;;;;9.14;85.14;99950.25;4880199;29;1164;-80
2022/11/11 11:19:26;;;;;;;;;;;;;;;9.13;85.32;99946.75;4874231;29;1577;-78
2022/11/11 11:21:52;;;;;;;;;;;;;;;9.14;85.40;99931.44;4889208;29;2035;-79
2022/11/11 11:24:19;;;;;;;;;;;;;;;9.15;85.52;99930.38;4880258;29;1132;-78
2022/11/11 11:26:46;;;;;;;;;;;;;;;9.15;85.43;99927.72;4845579;29;1180;-79
2022/11/11 11:29:12;;;;;;;;;;;;;;;9.16;85.54;99934.75;4892390;29;1907;-78
2022/11/11 11:31:39;;;;;;;;;;;;;;;9.16;85.50;99935.56;4860202;29;1949;-79
2022/11/11 11:34:05;;;;;;;;;;;;;;;9.17;85.59;99939.88;4864005;29;1430;-78
2022/11/11 11:36:32;;;;;;;;;;;;;;;9.18;85.53;99948.78;4881680;29;1872;-78
2022/11/11 11:38:59;;;;;;;;;;;;;;;9.18;85.69;99946.09;4862733;29;1157;-78
2022/11/11 11:41:26;;;;;;;;;;;;;;;9.18;85.59;99938.03;4879335;29;2040;-79
2022/11/11 11:43:52;;;;;;;;;;;;;;;9.18;85.56;99929.97;4867616;29;1447;-79
2022/11/11 11:46:19;;;;;;;;;;;;;;;9.18;85.82;99925.41;4868129;29;4011;-79
2022/11/11 11:48:45;;;;;;;;;;;;;;;9.21;85.70;99951.00;4866464;29;3715;-78
2022/11/11 11:51:12;;;;;;;;;;;;;;;9.20;85.64;99936.72;4867846;29;2581;-78
2022/11/11 11:53:38;;;;;;;;;;;;;;;9.21;85.69;99937.56;4883443;29;1056;-77
2022/11/11 11:56:05;;;;;;;;;;;;;;;9.21;85.63;99945.63;4895531;29;1511;-78
2022/11/11 11:58:31;;;;;;;;;;;;;;;9.21;85.68;99949.13;4893494;29;2040;-77
2022/11/11 12:00:58;;;;;;;;;;;;;;;9.21;85.45;99937.56;4883350;29;1908;-79
2022/11/11 12:03:24;;;;;;;;;;;;;;;9.22;85.59;99942.72;4889197;29;2714;-78
2022/11/11 12:05:51;;;;;;;;;;;;;;;9.22;85.61;99940.03;4891139;29;1634;-79
2022/11/11 12:08:17;;;;;;;;;;;;;;;9.23;85.44;99936.28;4888974;29;1914;-78
2022/11/11 12:10:44;;;;;;;;;;;;;;;9.24;85.56;99942.50;4875099;29;1996;-78
2022/11/11 12:13:10;;;;;;;;;;;;;;;9.24;85.70;99947.88;4867220;29;1509;-77
2022/11/11 12:15:37;;;;;;;;;;;;;;;9.25;85.46;99941.44;4883400;29;1250;-78
2022/11/11 12:18:04;;;;;;;;;;;;;;;9.25;85.54;99936.88;4898566;29;1765;-77
2022/11/11 12:20:30;;;;;;;;;;;;;;;9.27;85.65;99952.78;4877285;29;1991;-78
2022/11/11 12:22:57;;;;;;;;;;;;;;;9.27;85.50;99947.41;4882823;29;1250;-77
2022/11/11 12:25:23;;;;;;;;;;;;;;;9.27;85.77;99964.34;4858561;29;1609;-79
2022/11/11 12:27:49;;;;;;;;;;;;;;;9.27;85.59;99963.53;4872684;29;1612;-78
2022/11/11 12:30:16;;;;;;;;;;;;;;;9.27;85.71;99955.47;4878768;29;2015;-77
2022/11/11 12:32:42;;;;;;;;;;;;;;;9.28;85.80;99959.81;4883032;29;1144;-78
2022/11/11 12:35:09;;;;;;;;;;;;;;;9.28;85.73;99962.47;4881374;29;1588;-78
2022/11/11 12:37:36;;;;;;;;;;;;;;;9.27;85.55;99961.66;4877209;29;2390;-78
2022/11/11 12:40:02;;;;;;;;;;;;;;;9.28;85.59;99967.88;4855705;29;1985;-79
2022/11/11 12:42:29;;;;;;;;;;;;;;;9.28;85.68;99963.31;4885107;29;1521;-80
2022/11/11 12:44:59;;;;;;;;;;;;;;;9.29;85.52;99964.13;4881005;29;1901;-79
2022/11/11 12:47:25;;;;;;;;;;;;;;;9.29;85.16;99964.13;4888552;29;1714;-79
2022/11/11 12:49:52;;;;;;;;;;;;;;;9.30;85.41;99966.59;4864955;29;2356;-79
2022/11/11 12:52:18;;;;;;;;;;;;;;;9.30;85.71;99963.09;4882147;29;1160;-78
2022/11/11 12:54:45;;;;;;;;;;;;;;;9.30;85.58;99958.53;4864585;29;1250;-78
2022/11/11 12:57:11;;;;;;;;;;;;;;;9.31;85.63;99964.72;4879427;29;1677;-79
2022/11/11 12:59:38;;;;;;;;;;;;;;;9.33;85.41;99957.25;4883164;29;1953;-80
2022/11/11 13:02:04;;;;;;;;;;;;;;;9.32;85.44;99950.22;4883572;29;1495;-80
2022/11/11 13:04:31;;;;;;;;;;;;;;;9.33;85.53;99958.06;4885332;29;1571;-80
2022/11/11 13:06:57;;;;;;;;;;;;;;;9.33;85.60;99966.13;4863965;29;1180;-77
2022/11/11 13:09:24;;;;;;;;;;;;;;;9.34;85.45;99966.97;4881452;29;2160;-79
2022/11/11 13:11:50;;;;;;;;;;;;;;;9.36;85.61;99974.81;4893088;29;1522;-77
2022/11/11 13:14:17;;;;;;;;;;;;;;;9.37;85.69;99971.06;4888669;29;1521;-78
2022/11/11 13:16:44;;;;;;;;;;;;;;;9.38;85.51;99956.56;4863289;29;1523;-78
2022/11/11 13:19:10;;;;;;;;;;;;;;;9.39;85.53;99952.84;4880606;29;1977;-78
2022/11/11 13:21:37;;;;;;;;;;;;;;;9.40;85.29;99952.63;4888697;29;1483;-78
2022/11/11 13:24:03;;;;;;;;;;;;;;;9.42;85.59;99941.66;4863723;29;1218;-78
2022/11/11 13:26:30;;;;;;;;;;;;;;;9.42;85.84;99953.22;4882120;29;1143;-79
2022/11/11 13:28:56;;;;;;;;;;;;;;;9.44;85.63;99969.09;4864928;29;2040;-77
2022/11/11 13:31:23;;;;;;;;;;;;;;;9.46;85.72;99967.84;4875620;29;1895;-78
2022/11/11 13:33:50;;;;;;;;;;;;;;;9.46;85.62;99967.00;4890190;29;1943;-80
2022/11/11 13:36:16;;;;;;;;;;;;;;;9.46;85.75;99970.53;4875319;29;1985;-77
2022/11/11 13:38:43;;;;;;;;;;;;;;;9.47;85.70;99979.41;4890845;29;1519;-80
2022/11/11 13:41:10;;;;;;;;;;;;;;;9.47;85.67;99980.25;4874913;29;1483;-79
2022/11/11 13:43:36;;;;;;;;;;;;;;;9.48;85.81;99989.13;4862420;29;1996;-79
2022/11/11 13:46:03;;;;;;;;;;;;;;;9.48;85.62;99981.06;4876489;29;1930;-78
2022/11/11 13:48:29;;;;;;;;;;;;;;;9.49;85.77;99982.69;4885248;29;1520;-80
2022/11/11 13:50:56;;;;;;;;;;;;;;;9.48;85.75;99997.19;4885527;29;808;-80
2022/11/11 13:53:22;;;;;;;;;;;;;;;9.49;85.64;99982.69;4865595;29;1924;-78
2022/11/11 13:55:49;;;;;;;;;;;;;;;9.48;85.77;99991.81;4863122;29;982;-80
2022/11/11 13:58:16;;;;;;;;;;;;;;;9.48;85.75;99994.50;4866004;29;1937;-78
2022/11/11 14:00:42;;;;;;;;;;;;;;;9.50;85.85;99981.63;4898408;29;1961;-78
2022/11/11 14:03:09;;;;;;;;;;;;;;;9.51;85.64;99977.91;4886582;29;1526;-79
2022/11/11 14:05:35;;;;;;;;;;;;;;;9.50;85.83;99970.88;4868038;29;3745;-80
2022/11/11 14:08:02;;;;;;;;;;;;;;;9.50;86.06;99982.47;4883163;29;3420;-77
2022/11/11 14:10:28;;;;;;;;;;;;;;;9.09;85.68;99910.66;4877564;29;2627;-79
2022/11/11 14:12:55;;;;;;;;;;;;;;;9.52;85.79;99979.53;4887102;29;1392;-80
2022/11/11 14:15:21;;;;;;;;;;;;;;;9.53;85.81;99983.91;4881589;29;1980;-78
2022/11/11 14:17:48;;;;;;;;;;;;;;;9.54;85.99;99980.16;4864155;29;1407;-79
2022/11/11 14:20:14;;;;;;;;;;;;;;;9.54;85.76;99974.78;4859616;29;1915;-79
2022/11/11 14:22:41;;;;;;;;;;;;;;;9.54;85.99;99978.28;4842581;29;2601;-78